sensor_id;sensor_type;location;lat;lon;timestamp;temperature;humidity
65231;DHT22;51813;40.666;16.602;2023-08-17T00:00:09;26.00;53.10
65231;DHT22;51813;40.666;16.602;2023-08-17T00:02:35;26.00;53.40
65231;DHT22;51813;40.666;16.602;2023-08-17T00:05:01;26.00;53.40
65231;DHT22;51813;40.666;16.602;2023-08-17T00:07:27;25.90;53.10
65231;DHT22;51813;40.666;16.602;2023-08-17T00:09:53;25.90;53.00
65231;DHT22;51813;40.666;16.602;2023-08-17T00:12:18;26.00;53.50
65231;DHT22;51813;40.666;16.602;2023-08-17T00:14:44;26.00;53.50
65231;DHT22;51813;40.666;16.602;2023-08-17T00:17:10;25.90;53.30
65231;DHT22;51813;40.666;16.602;2023-08-17T00:19:35;25.90;53.40
65231;DHT22;51813;40.666;16.602;2023-08-17T00:22:01;25.90;53.40
65231;DHT22;51813;40.666;16.602;2023-08-17T00:24:27;25.90;53.40
65231;DHT22;51813;40.666;16.602;2023-08-17T00:26:52;25.90;52.90
65231;DHT22;51813;40.666;16.602;2023-08-17T00:29:18;25.90;53.20
65231;DHT22;51813;40.666;16.602;2023-08-17T00:31:44;25.90;53.50
65231;DHT22;51813;40.666;16.602;2023-08-17T00:34:09;26.00;52.90
65231;DHT22;51813;40.666;16.602;2023-08-17T00:36:35;25.90;53.00
65231;DHT22;51813;40.666;16.602;2023-08-17T00:39:01;25.90;53.10
65231;DHT22;51813;40.666;16.602;2023-08-17T00:41:27;25.90;53.40
65231;DHT22;51813;40.666;16.602;2023-08-17T00:43:54;25.90;52.90
65231;DHT22;51813;40.666;16.602;2023-08-17T00:46:20;25.90;53.40
65231;DHT22;51813;40.666;16.602;2023-08-17T00:48:48;26.00;53.00
65231;DHT22;51813;40.666;16.602;2023-08-17T00:51:14;26.00;53.90
65231;DHT22;51813;40.666;16.602;2023-08-17T00:53:40;26.00;52.90
65231;DHT22;51813;40.666;16.602;2023-08-17T00:56:07;26.00;53.10
65231;DHT22;51813;40.666;16.602;2023-08-17T00:58:34;25.90;52.60
65231;DHT22;51813;40.666;16.602;2023-08-17T01:01:00;25.90;52.80
65231;DHT22;51813;40.666;16.602;2023-08-17T01:03:28;26.00;53.00
65231;DHT22;51813;40.666;16.602;2023-08-17T01:05:56;26.00;52.40
65231;DHT22;51813;40.666;16.602;2023-08-17T01:08:22;26.00;52.70
65231;DHT22;51813;40.666;16.602;2023-08-17T01:16:52;25.90;52.40
65231;DHT22;51813;40.666;16.602;2023-08-17T01:19:25;25.80;52.70
65231;DHT22;51813;40.666;16.602;2023-08-17T01:21:57;25.80;52.00
65231;DHT22;51813;40.666;16.602;2023-08-17T01:24:24;25.80;52.00
65231;DHT22;51813;40.666;16.602;2023-08-17T01:26:50;25.80;52.00
65231;DHT22;51813;40.666;16.602;2023-08-17T01:29:16;25.70;52.30
65231;DHT22;51813;40.666;16.602;2023-08-17T01:34:22;25.80;51.80
65231;DHT22;51813;40.666;16.602;2023-08-17T01:37:00;25.70;53.10
65231;DHT22;51813;40.666;16.602;2023-08-17T01:39:49;25.80;52.30
65231;DHT22;51813;40.666;16.602;2023-08-17T01:42:16;25.70;52.10
65231;DHT22;51813;40.666;16.602;2023-08-17T01:44:42;25.80;52.40
65231;DHT22;51813;40.666;16.602;2023-08-17T01:47:08;25.70;52.50
65231;DHT22;51813;40.666;16.602;2023-08-17T01:49:34;25.70;52.40
65231;DHT22;51813;40.666;16.602;2023-08-17T01:52:00;25.70;53.10
65231;DHT22;51813;40.666;16.602;2023-08-17T01:54:26;25.70;52.30
65231;DHT22;51813;40.666;16.602;2023-08-17T01:56:52;25.80;53.00
65231;DHT22;51813;40.666;16.602;2023-08-17T01:59:17;25.80;52.90
65231;DHT22;51813;40.666;16.602;2023-08-17T02:01:43;25.80;52.90
65231;DHT22;51813;40.666;16.602;2023-08-17T02:04:09;25.80;53.10
65231;DHT22;51813;40.666;16.602;2023-08-17T02:06:34;25.80;53.10
65231;DHT22;51813;40.666;16.602;2023-08-17T02:09:00;25.80;53.10
65231;DHT22;51813;40.666;16.602;2023-08-17T02:11:26;25.80;52.90
65231;DHT22;51813;40.666;16.602;2023-08-17T02:13:52;25.80;53.10
65231;DHT22;51813;40.666;16.602;2023-08-17T02:16:18;25.70;53.40
65231;DHT22;51813;40.666;16.602;2023-08-17T02:18:43;25.70;53.70
65231;DHT22;51813;40.666;16.602;2023-08-17T02:21:09;25.80;53.40
65231;DHT22;51813;40.666;16.602;2023-08-17T02:23:35;25.80;53.60
65231;DHT22;51813;40.666;16.602;2023-08-17T02:26:01;25.70;54.00
65231;DHT22;51813;40.666;16.602;2023-08-17T02:28:26;25.70;53.50
65231;DHT22;51813;40.666;16.602;2023-08-17T02:30:56;25.70;54.00
65231;DHT22;51813;40.666;16.602;2023-08-17T02:33:22;25.60;54.10
65231;DHT22;51813;40.666;16.602;2023-08-17T02:35:51;25.60;54.40
65231;DHT22;51813;40.666;16.602;2023-08-17T02:38:18;25.60;54.40
65231;DHT22;51813;40.666;16.602;2023-08-17T02:40:43;25.60;54.30
65231;DHT22;51813;40.666;16.602;2023-08-17T02:43:09;25.60;54.30
65231;DHT22;51813;40.666;16.602;2023-08-17T02:45:35;25.70;54.20
65231;DHT22;51813;40.666;16.602;2023-08-17T02:48:01;25.70;54.10
65231;DHT22;51813;40.666;16.602;2023-08-17T02:50:26;25.60;54.30
65231;DHT22;51813;40.666;16.602;2023-08-17T02:52:52;25.50;54.50
65231;DHT22;51813;40.666;16.602;2023-08-17T02:55:18;25.50;54.80
65231;DHT22;51813;40.666;16.602;2023-08-17T02:57:44;25.50;54.60
65231;DHT22;51813;40.666;16.602;2023-08-17T03:00:10;25.50;54.70
65231;DHT22;51813;40.666;16.602;2023-08-17T03:02:36;25.50;54.60
65231;DHT22;51813;40.666;16.602;2023-08-17T03:05:02;25.50;54.50
65231;DHT22;51813;40.666;16.602;2023-08-17T03:07:28;25.50;54.90
65231;DHT22;51813;40.666;16.602;2023-08-17T03:09:54;25.50;54.50
65231;DHT22;51813;40.666;16.602;2023-08-17T03:12:19;25.50;54.30
65231;DHT22;51813;40.666;16.602;2023-08-17T03:14:45;25.50;54.50
65231;DHT22;51813;40.666;16.602;2023-08-17T03:17:11;25.50;53.80
65231;DHT22;51813;40.666;16.602;2023-08-17T03:19:37;25.50;54.50
65231;DHT22;51813;40.666;16.602;2023-08-17T03:22:02;25.50;54.20
65231;DHT22;51813;40.666;16.602;2023-08-17T03:24:28;25.50;54.10
65231;DHT22;51813;40.666;16.602;2023-08-17T03:26:54;25.50;53.90
65231;DHT22;51813;40.666;16.602;2023-08-17T03:29:20;25.50;53.70
65231;DHT22;51813;40.666;16.602;2023-08-17T03:31:45;25.50;54.30
65231;DHT22;51813;40.666;16.602;2023-08-17T03:34:11;25.50;54.30
65231;DHT22;51813;40.666;16.602;2023-08-17T03:36:37;25.50;53.80
65231;DHT22;51813;40.666;16.602;2023-08-17T03:39:03;25.50;54.10
65231;DHT22;51813;40.666;16.602;2023-08-17T03:41:28;25.50;54.50
65231;DHT22;51813;40.666;16.602;2023-08-17T03:43:55;25.50;54.10
65231;DHT22;51813;40.666;16.602;2023-08-17T03:46:21;25.50;54.50
65231;DHT22;51813;40.666;16.602;2023-08-17T03:48:47;25.50;54.40
65231;DHT22;51813;40.666;16.602;2023-08-17T03:51:12;25.50;54.30
65231;DHT22;51813;40.666;16.602;2023-08-17T03:53:38;25.50;54.80
65231;DHT22;51813;40.666;16.602;2023-08-17T03:56:04;25.50;54.50
65231;DHT22;51813;40.666;16.602;2023-08-17T03:58:29;25.50;55.00
65231;DHT22;51813;40.666;16.602;2023-08-17T04:00:59;25.50;54.90
65231;DHT22;51813;40.666;16.602;2023-08-17T04:03:25;25.50;54.80
65231;DHT22;51813;40.666;16.602;2023-08-17T04:05:51;25.50;55.30
65231;DHT22;51813;40.666;16.602;2023-08-17T04:08:16;25.50;55.40
65231;DHT22;51813;40.666;16.602;2023-08-17T04:10:42;25.40;55.50
65231;DHT22;51813;40.666;16.602;2023-08-17T04:13:08;25.40;55.60
65231;DHT22;51813;40.666;16.602;2023-08-17T04:15:33;25.40;56.00
65231;DHT22;51813;40.666;16.602;2023-08-17T04:17:59;25.40;55.70
65231;DHT22;51813;40.666;16.602;2023-08-17T04:20:25;25.40;56.10
65231;DHT22;51813;40.666;16.602;2023-08-17T04:22:51;25.40;56.20
65231;DHT22;51813;40.666;16.602;2023-08-17T04:25:17;25.40;56.50
65231;DHT22;51813;40.666;16.602;2023-08-17T04:27:42;25.40;56.70
65231;DHT22;51813;40.666;16.602;2023-08-17T04:30:09;25.40;57.00
65231;DHT22;51813;40.666;16.602;2023-08-17T04:32:35;25.40;56.90
65231;DHT22;51813;40.666;16.602;2023-08-17T04:35:00;25.40;57.50
65231;DHT22;51813;40.666;16.602;2023-08-17T04:37:26;25.40;57.40
65231;DHT22;51813;40.666;16.602;2023-08-17T04:39:52;25.40;57.30
65231;DHT22;51813;40.666;16.602;2023-08-17T04:42:18;25.40;57.60
65231;DHT22;51813;40.666;16.602;2023-08-17T04:44:45;25.40;58.50
65231;DHT22;51813;40.666;16.602;2023-08-17T04:47:11;25.30;58.40
65231;DHT22;51813;40.666;16.602;2023-08-17T04:49:37;25.40;58.20
65231;DHT22;51813;40.666;16.602;2023-08-17T04:52:03;25.40;58.00
65231;DHT22;51813;40.666;16.602;2023-08-17T04:54:29;25.40;57.60
65231;DHT22;51813;40.666;16.602;2023-08-17T04:56:54;25.50;57.70
65231;DHT22;51813;40.666;16.602;2023-08-17T04:59:20;25.50;57.90
65231;DHT22;51813;40.666;16.602;2023-08-17T05:01:46;25.40;57.80
65231;DHT22;51813;40.666;16.602;2023-08-17T05:04:11;25.40;57.50
65231;DHT22;51813;40.666;16.602;2023-08-17T05:06:37;25.50;57.90
65231;DHT22;51813;40.666;16.602;2023-08-17T05:09:04;25.50;57.90
65231;DHT22;51813;40.666;16.602;2023-08-17T05:11:30;25.50;57.70
65231;DHT22;51813;40.666;16.602;2023-08-17T05:13:56;25.50;58.00
65231;DHT22;51813;40.666;16.602;2023-08-17T05:16:22;25.50;57.80
65231;DHT22;51813;40.666;16.602;2023-08-17T05:18:48;25.50;58.00
65231;DHT22;51813;40.666;16.602;2023-08-17T05:21:13;25.40;58.20
65231;DHT22;51813;40.666;16.602;2023-08-17T05:23:39;25.50;58.10
65231;DHT22;51813;40.666;16.602;2023-08-17T05:26:05;25.50;58.00
65231;DHT22;51813;40.666;16.602;2023-08-17T05:28:30;25.50;57.80
65231;DHT22;51813;40.666;16.602;2023-08-17T05:30:56;25.50;57.80
65231;DHT22;51813;40.666;16.602;2023-08-17T05:33:27;25.60;57.70
65231;DHT22;51813;40.666;16.602;2023-08-17T05:35:54;25.50;57.60
65231;DHT22;51813;40.666;16.602;2023-08-17T05:38:20;25.50;57.70
65231;DHT22;51813;40.666;16.602;2023-08-17T05:40:46;25.50;57.50
65231;DHT22;51813;40.666;16.602;2023-08-17T05:43:11;25.60;57.30
65231;DHT22;51813;40.666;16.602;2023-08-17T05:45:37;25.50;57.50
65231;DHT22;51813;40.666;16.602;2023-08-17T05:48:03;25.50;57.40
65231;DHT22;51813;40.666;16.602;2023-08-17T05:50:29;25.40;57.80
65231;DHT22;51813;40.666;16.602;2023-08-17T05:52:56;25.50;57.50
65231;DHT22;51813;40.666;16.602;2023-08-17T05:55:21;25.50;57.40
65231;DHT22;51813;40.666;16.602;2023-08-17T05:57:47;25.50;57.30
65231;DHT22;51813;40.666;16.602;2023-08-17T06:00:13;25.50;57.20
65231;DHT22;51813;40.666;16.602;2023-08-17T06:02:39;25.50;57.80
65231;DHT22;51813;40.666;16.602;2023-08-17T06:05:05;25.50;57.50
65231;DHT22;51813;40.666;16.602;2023-08-17T06:07:31;25.50;57.00
65231;DHT22;51813;40.666;16.602;2023-08-17T06:09:57;25.50;57.10
65231;DHT22;51813;40.666;16.602;2023-08-17T06:12:22;25.50;57.00
65231;DHT22;51813;40.666;16.602;2023-08-17T06:14:48;25.50;57.10
65231;DHT22;51813;40.666;16.602;2023-08-17T06:17:14;25.50;56.70
65231;DHT22;51813;40.666;16.602;2023-08-17T06:19:39;25.50;56.70
65231;DHT22;51813;40.666;16.602;2023-08-17T06:22:05;25.50;57.00
65231;DHT22;51813;40.666;16.602;2023-08-17T06:24:31;25.50;56.80
65231;DHT22;51813;40.666;16.602;2023-08-17T06:26:57;25.60;56.90
65231;DHT22;51813;40.666;16.602;2023-08-17T06:29:22;25.60;56.80
65231;DHT22;51813;40.666;16.602;2023-08-17T06:31:48;25.60;56.50
65231;DHT22;51813;40.666;16.602;2023-08-17T06:34:13;25.60;56.30
65231;DHT22;51813;40.666;16.602;2023-08-17T06:36:40;25.50;55.80
65231;DHT22;51813;40.666;16.602;2023-08-17T06:39:06;25.50;56.10
65231;DHT22;51813;40.666;16.602;2023-08-17T06:41:32;25.50;56.30
65231;DHT22;51813;40.666;16.602;2023-08-17T06:43:57;25.50;56.50
65231;DHT22;51813;40.666;16.602;2023-08-17T06:46:23;25.60;56.60
65231;DHT22;51813;40.666;16.602;2023-08-17T06:48:50;25.60;56.50
65231;DHT22;51813;40.666;16.602;2023-08-17T06:51:16;25.60;55.80
65231;DHT22;51813;40.666;16.602;2023-08-17T06:53:41;25.60;55.60
65231;DHT22;51813;40.666;16.602;2023-08-17T06:56:09;25.70;55.20
65231;DHT22;51813;40.666;16.602;2023-08-17T06:58:35;25.70;55.30
65231;DHT22;51813;40.666;16.602;2023-08-17T07:01:00;25.70;54.90
65231;DHT22;51813;40.666;16.602;2023-08-17T07:03:26;25.70;54.70
65231;DHT22;51813;40.666;16.602;2023-08-17T07:05:52;25.70;54.70
65231;DHT22;51813;40.666;16.602;2023-08-17T07:08:18;25.70;54.70
65231;DHT22;51813;40.666;16.602;2023-08-17T07:10:43;25.70;54.60
65231;DHT22;51813;40.666;16.602;2023-08-17T07:13:10;25.70;54.70
65231;DHT22;51813;40.666;16.602;2023-08-17T07:15:35;25.80;54.60
65231;DHT22;51813;40.666;16.602;2023-08-17T07:18:01;25.70;54.70
65231;DHT22;51813;40.666;16.602;2023-08-17T07:20:27;25.70;54.40
65231;DHT22;51813;40.666;16.602;2023-08-17T07:22:53;25.70;54.70
65231;DHT22;51813;40.666;16.602;2023-08-17T07:25:18;25.70;54.60
65231;DHT22;51813;40.666;16.602;2023-08-17T07:27:44;25.80;54.50
65231;DHT22;51813;40.666;16.602;2023-08-17T07:30:10;25.80;54.70
65231;DHT22;51813;40.666;16.602;2023-08-17T07:32:36;25.80;54.20
65231;DHT22;51813;40.666;16.602;2023-08-17T07:35:02;25.80;54.10
65231;DHT22;51813;40.666;16.602;2023-08-17T07:37:28;25.80;53.50
65231;DHT22;51813;40.666;16.602;2023-08-17T07:39:58;25.70;53.20
65231;DHT22;51813;40.666;16.602;2023-08-17T07:42:24;25.80;52.70
65231;DHT22;51813;40.666;16.602;2023-08-17T07:44:50;25.80;53.20
65231;DHT22;51813;40.666;16.602;2023-08-17T07:47:16;25.90;53.40
65231;DHT22;51813;40.666;16.602;2023-08-17T07:49:41;25.90;53.10
65231;DHT22;51813;40.666;16.602;2023-08-17T07:52:07;25.90;53.10
65231;DHT22;51813;40.666;16.602;2023-08-17T07:54:33;25.90;53.30
65231;DHT22;51813;40.666;16.602;2023-08-17T07:56:59;25.90;53.20
65231;DHT22;51813;40.666;16.602;2023-08-17T07:59:25;25.90;52.70
65231;DHT22;51813;40.666;16.602;2023-08-17T08:01:50;25.90;52.90
65231;DHT22;51813;40.666;16.602;2023-08-17T08:04:16;25.90;52.90
65231;DHT22;51813;40.666;16.602;2023-08-17T08:06:42;26.00;52.70
65231;DHT22;51813;40.666;16.602;2023-08-17T08:09:08;26.00;52.70
65231;DHT22;51813;40.666;16.602;2023-08-17T08:11:34;26.00;52.60
65231;DHT22;51813;40.666;16.602;2023-08-17T08:13:59;26.00;52.40
65231;DHT22;51813;40.666;16.602;2023-08-17T08:16:26;26.00;52.60
65231;DHT22;51813;40.666;16.602;2023-08-17T08:18:51;26.00;52.30
65231;DHT22;51813;40.666;16.602;2023-08-17T08:21:17;26.00;52.30
65231;DHT22;51813;40.666;16.602;2023-08-17T08:23:43;26.00;52.00
65231;DHT22;51813;40.666;16.602;2023-08-17T08:26:08;26.00;51.60
65231;DHT22;51813;40.666;16.602;2023-08-17T08:28:34;26.10;51.50
65231;DHT22;51813;40.666;16.602;2023-08-17T08:31:03;26.00;51.60
65231;DHT22;51813;40.666;16.602;2023-08-17T08:33:30;26.10;51.90
65231;DHT22;51813;40.666;16.602;2023-08-17T08:35:56;26.00;51.20
65231;DHT22;51813;40.666;16.602;2023-08-17T08:38:21;26.10;51.10
65231;DHT22;51813;40.666;16.602;2023-08-17T08:40:48;26.10;51.20
65231;DHT22;51813;40.666;16.602;2023-08-17T08:43:17;26.10;51.20
65231;DHT22;51813;40.666;16.602;2023-08-17T08:45:43;26.10;50.60
65231;DHT22;51813;40.666;16.602;2023-08-17T08:48:12;26.10;50.10
65231;DHT22;51813;40.666;16.602;2023-08-17T08:50:40;26.10;50.60
65231;DHT22;51813;40.666;16.602;2023-08-17T08:53:14;26.20;50.90
65231;DHT22;51813;40.666;16.602;2023-08-17T08:55:47;26.20;50.50
65231;DHT22;51813;40.666;16.602;2023-08-17T08:58:15;26.20;50.20
65231;DHT22;51813;40.666;16.602;2023-08-17T09:00:41;26.20;50.00
65231;DHT22;51813;40.666;16.602;2023-08-17T09:03:07;26.20;50.70
65231;DHT22;51813;40.666;16.602;2023-08-17T09:05:35;26.20;51.00
65231;DHT22;51813;40.666;16.602;2023-08-17T09:08:02;26.20;50.90
65231;DHT22;51813;40.666;16.602;2023-08-17T09:10:28;26.10;51.10
65231;DHT22;51813;40.666;16.602;2023-08-17T09:12:54;26.10;50.80
65231;DHT22;51813;40.666;16.602;2023-08-17T09:15:20;26.10;50.90
65231;DHT22;51813;40.666;16.602;2023-08-17T09:17:45;26.10;50.60
65231;DHT22;51813;40.666;16.602;2023-08-17T09:23:10;26.10;50.80
65231;DHT22;51813;40.666;16.602;2023-08-17T09:25:39;26.10;51.20
65231;DHT22;51813;40.666;16.602;2023-08-17T09:28:09;26.10;51.40
65231;DHT22;51813;40.666;16.602;2023-08-17T09:31:01;26.10;51.40
65231;DHT22;51813;40.666;16.602;2023-08-17T09:33:32;26.10;50.70
65231;DHT22;51813;40.666;16.602;2023-08-17T09:35:59;26.30;49.80
65231;DHT22;51813;40.666;16.602;2023-08-17T09:38:25;26.30;48.80
65231;DHT22;51813;40.666;16.602;2023-08-17T09:40:51;26.30;48.80
65231;DHT22;51813;40.666;16.602;2023-08-17T09:43:17;26.40;49.80
65231;DHT22;51813;40.666;16.602;2023-08-17T09:45:44;26.40;49.40
65231;DHT22;51813;40.666;16.602;2023-08-17T09:48:18;26.40;49.70
65231;DHT22;51813;40.666;16.602;2023-08-17T09:50:45;26.40;48.90
65231;DHT22;51813;40.666;16.602;2023-08-17T09:53:17;26.50;48.70
65231;DHT22;51813;40.666;16.602;2023-08-17T09:55:43;26.50;49.60
65231;DHT22;51813;40.666;16.602;2023-08-17T09:58:10;26.50;49.00
65231;DHT22;51813;40.666;16.602;2023-08-17T10:00:49;26.50;48.20
65231;DHT22;51813;40.666;16.602;2023-08-17T10:03:16;26.50;48.00
65231;DHT22;51813;40.666;16.602;2023-08-17T10:05:44;26.50;47.80
65231;DHT22;51813;40.666;16.602;2023-08-17T10:08:11;26.50;47.20
65231;DHT22;51813;40.666;16.602;2023-08-17T10:10:44;26.50;47.70
65231;DHT22;51813;40.666;16.602;2023-08-17T10:13:12;26.60;48.30
65231;DHT22;51813;40.666;16.602;2023-08-17T10:15:45;26.60;48.20
65231;DHT22;51813;40.666;16.602;2023-08-17T10:18:26;26.60;48.30
65231;DHT22;51813;40.666;16.602;2023-08-17T10:21:07;26.70;47.80
65231;DHT22;51813;40.666;16.602;2023-08-17T10:23:35;26.70;48.10
65231;DHT22;51813;40.666;16.602;2023-08-17T10:26:02;26.70;48.00
65231;DHT22;51813;40.666;16.602;2023-08-17T10:28:30;26.70;48.20
65231;DHT22;51813;40.666;16.602;2023-08-17T10:30:56;26.70;48.10
65231;DHT22;51813;40.666;16.602;2023-08-17T10:33:23;26.70;48.10
65231;DHT22;51813;40.666;16.602;2023-08-17T10:35:50;26.70;48.10
65231;DHT22;51813;40.666;16.602;2023-08-17T10:38:16;26.70;47.30
65231;DHT22;51813;40.666;16.602;2023-08-17T10:40:42;26.80;47.00
65231;DHT22;51813;40.666;16.602;2023-08-17T10:43:08;26.80;48.10
65231;DHT22;51813;40.666;16.602;2023-08-17T10:45:35;26.80;47.30
65231;DHT22;51813;40.666;16.602;2023-08-17T10:50:31;26.70;47.80
65231;DHT22;51813;40.666;16.602;2023-08-17T10:52:58;26.80;47.90
65231;DHT22;51813;40.666;16.602;2023-08-17T10:55:36;26.80;47.30
65231;DHT22;51813;40.666;16.602;2023-08-17T10:58:02;27.00;47.30
65231;DHT22;51813;40.666;16.602;2023-08-17T11:00:34;27.10;47.20
65231;DHT22;51813;40.666;16.602;2023-08-17T11:03:06;27.20;47.20
65231;DHT22;51813;40.666;16.602;2023-08-17T11:08:05;27.50;46.50
65231;DHT22;51813;40.666;16.602;2023-08-17T11:10:30;27.70;46.50
65231;DHT22;51813;40.666;16.602;2023-08-17T11:12:57;27.90;46.10
65231;DHT22;51813;40.666;16.602;2023-08-17T11:15:35;28.00;45.70
65231;DHT22;51813;40.666;16.602;2023-08-17T11:18:06;28.10;45.60
65231;DHT22;51813;40.666;16.602;2023-08-17T11:20:32;28.20;45.30
65231;DHT22;51813;40.666;16.602;2023-08-17T11:22:58;28.30;44.80
65231;DHT22;51813;40.666;16.602;2023-08-17T11:25:26;28.30;45.20
65231;DHT22;51813;40.666;16.602;2023-08-17T11:27:53;28.40;45.30
65231;DHT22;51813;40.666;16.602;2023-08-17T11:30:20;28.50;44.70
65231;DHT22;51813;40.666;16.602;2023-08-17T11:32:49;28.60;44.90
65231;DHT22;51813;40.666;16.602;2023-08-17T11:35:15;28.70;44.40
65231;DHT22;51813;40.666;16.602;2023-08-17T11:37:41;28.70;44.10
65231;DHT22;51813;40.666;16.602;2023-08-17T11:40:07;28.70;44.30
65231;DHT22;51813;40.666;16.602;2023-08-17T11:42:36;28.80;45.00
65231;DHT22;51813;40.666;16.602;2023-08-17T11:45:02;28.80;44.10
65231;DHT22;51813;40.666;16.602;2023-08-17T11:47:28;28.90;44.10
65231;DHT22;51813;40.666;16.602;2023-08-17T11:49:59;28.90;44.00
65231;DHT22;51813;40.666;16.602;2023-08-17T11:52:29;29.00;43.20
65231;DHT22;51813;40.666;16.602;2023-08-17T11:54:56;29.00;42.90
65231;DHT22;51813;40.666;16.602;2023-08-17T11:57:22;29.10;42.90
65231;DHT22;51813;40.666;16.602;2023-08-17T11:59:47;29.20;43.30
65231;DHT22;51813;40.666;16.602;2023-08-17T12:02:13;29.20;43.40
65231;DHT22;51813;40.666;16.602;2023-08-17T12:04:39;29.20;43.10
65231;DHT22;51813;40.666;16.602;2023-08-17T12:07:05;29.20;43.50
65231;DHT22;51813;40.666;16.602;2023-08-17T12:09:34;29.20;43.50
65231;DHT22;51813;40.666;16.602;2023-08-17T12:12:01;29.10;43.90
65231;DHT22;51813;40.666;16.602;2023-08-17T12:14:30;29.20;43.40
65231;DHT22;51813;40.666;16.602;2023-08-17T12:16:56;29.20;43.50
65231;DHT22;51813;40.666;16.602;2023-08-17T12:19:25;29.30;43.70
65231;DHT22;51813;40.666;16.602;2023-08-17T12:21:51;29.30;43.30
65231;DHT22;51813;40.666;16.602;2023-08-17T12:24:17;29.30;43.80
65231;DHT22;51813;40.666;16.602;2023-08-17T12:26:45;29.40;43.40
65231;DHT22;51813;40.666;16.602;2023-08-17T12:29:14;29.30;43.30
65231;DHT22;51813;40.666;16.602;2023-08-17T12:31:40;29.40;43.50
65231;DHT22;51813;40.666;16.602;2023-08-17T12:34:05;29.40;43.50
65231;DHT22;51813;40.666;16.602;2023-08-17T12:36:32;29.40;43.50
65231;DHT22;51813;40.666;16.602;2023-08-17T12:38:58;29.40;42.80
65231;DHT22;51813;40.666;16.602;2023-08-17T12:41:24;29.40;42.70
65231;DHT22;51813;40.666;16.602;2023-08-17T12:43:49;29.50;42.60
65231;DHT22;51813;40.666;16.602;2023-08-17T12:46:15;29.50;42.40
65231;DHT22;51813;40.666;16.602;2023-08-17T12:48:41;29.50;42.90
65231;DHT22;51813;40.666;16.602;2023-08-17T12:51:06;29.50;42.70
65231;DHT22;51813;40.666;16.602;2023-08-17T12:53:32;29.40;42.40
65231;DHT22;51813;40.666;16.602;2023-08-17T12:55:58;29.40;43.00
65231;DHT22;51813;40.666;16.602;2023-08-17T12:58:24;29.30;43.40
65231;DHT22;51813;40.666;16.602;2023-08-17T13:00:49;29.30;43.10
65231;DHT22;51813;40.666;16.602;2023-08-17T13:03:18;29.20;42.70
65231;DHT22;51813;40.666;16.602;2023-08-17T13:05:44;29.20;42.40
65231;DHT22;51813;40.666;16.602;2023-08-17T13:08:10;29.20;42.80
65231;DHT22;51813;40.666;16.602;2023-08-17T13:10:36;29.20;42.40
65231;DHT22;51813;40.666;16.602;2023-08-17T13:13:02;29.20;43.00
65231;DHT22;51813;40.666;16.602;2023-08-17T13:15:29;29.10;43.00
65231;DHT22;51813;40.666;16.602;2023-08-17T13:17:55;29.10;43.20
65231;DHT22;51813;40.666;16.602;2023-08-17T13:20:20;29.10;43.20
65231;DHT22;51813;40.666;16.602;2023-08-17T13:22:46;29.10;43.50
65231;DHT22;51813;40.666;16.602;2023-08-17T13:25:12;29.00;43.40
65231;DHT22;51813;40.666;16.602;2023-08-17T13:27:38;29.00;43.30
65231;DHT22;51813;40.666;16.602;2023-08-17T13:30:04;29.00;43.30
65231;DHT22;51813;40.666;16.602;2023-08-17T13:32:29;29.10;43.30
65231;DHT22;51813;40.666;16.602;2023-08-17T13:34:55;29.00;43.60
65231;DHT22;51813;40.666;16.602;2023-08-17T13:37:21;29.00;43.60
65231;DHT22;51813;40.666;16.602;2023-08-17T13:39:47;28.90;43.60
65231;DHT22;51813;40.666;16.602;2023-08-17T13:42:13;28.90;43.40
65231;DHT22;51813;40.666;16.602;2023-08-17T13:44:39;28.90;43.60
65231;DHT22;51813;40.666;16.602;2023-08-17T13:47:05;29.00;43.50
65231;DHT22;51813;40.666;16.602;2023-08-17T13:49:31;29.00;43.50
65231;DHT22;51813;40.666;16.602;2023-08-17T13:51:56;29.00;43.90
65231;DHT22;51813;40.666;16.602;2023-08-17T13:54:23;29.00;44.30
65231;DHT22;51813;40.666;16.602;2023-08-17T13:56:49;29.00;44.70
65231;DHT22;51813;40.666;16.602;2023-08-17T13:59:14;29.00;45.70
65231;DHT22;51813;40.666;16.602;2023-08-17T14:01:40;29.00;46.40
65231;DHT22;51813;40.666;16.602;2023-08-17T14:04:06;29.00;46.80
65231;DHT22;51813;40.666;16.602;2023-08-17T14:06:37;29.00;46.80
65231;DHT22;51813;40.666;16.602;2023-08-17T14:09:03;28.90;47.60
65231;DHT22;51813;40.666;16.602;2023-08-17T14:11:29;28.90;47.50
65231;DHT22;51813;40.666;16.602;2023-08-17T14:13:55;28.70;47.80
65231;DHT22;51813;40.666;16.602;2023-08-17T14:16:21;28.60;47.90
65231;DHT22;51813;40.666;16.602;2023-08-17T14:18:46;28.60;48.30
65231;DHT22;51813;40.666;16.602;2023-08-17T14:21:12;28.50;48.50
65231;DHT22;51813;40.666;16.602;2023-08-17T14:23:38;28.60;48.50
65231;DHT22;51813;40.666;16.602;2023-08-17T14:26:04;28.70;49.00
65231;DHT22;51813;40.666;16.602;2023-08-17T14:28:30;28.70;49.00
65231;DHT22;51813;40.666;16.602;2023-08-17T14:30:56;28.80;49.00
65231;DHT22;51813;40.666;16.602;2023-08-17T14:33:21;28.70;48.90
65231;DHT22;51813;40.666;16.602;2023-08-17T14:35:47;28.80;48.80
65231;DHT22;51813;40.666;16.602;2023-08-17T14:38:13;28.80;48.80
65231;DHT22;51813;40.666;16.602;2023-08-17T14:40:46;28.80;48.90
65231;DHT22;51813;40.666;16.602;2023-08-17T14:43:12;28.90;49.00
65231;DHT22;51813;40.666;16.602;2023-08-17T14:45:42;28.90;49.00
65231;DHT22;51813;40.666;16.602;2023-08-17T14:48:08;28.80;48.70
65231;DHT22;51813;40.666;16.602;2023-08-17T14:50:37;28.80;48.80
65231;DHT22;51813;40.666;16.602;2023-08-17T14:53:04;28.80;48.70
65231;DHT22;51813;40.666;16.602;2023-08-17T14:55:33;28.80;48.70
65231;DHT22;51813;40.666;16.602;2023-08-17T14:57:59;28.70;48.40
65231;DHT22;51813;40.666;16.602;2023-08-17T15:00:25;28.70;48.60
65231;DHT22;51813;40.666;16.602;2023-08-17T15:02:55;28.70;48.40
65231;DHT22;51813;40.666;16.602;2023-08-17T15:05:21;28.70;48.70
65231;DHT22;51813;40.666;16.602;2023-08-17T15:07:47;28.70;48.40
65231;DHT22;51813;40.666;16.602;2023-08-17T15:10:13;28.80;48.30
65231;DHT22;51813;40.666;16.602;2023-08-17T15:12:39;28.70;48.40
65231;DHT22;51813;40.666;16.602;2023-08-17T15:15:05;28.70;48.20
65231;DHT22;51813;40.666;16.602;2023-08-17T15:17:31;28.70;48.70
65231;DHT22;51813;40.666;16.602;2023-08-17T15:19:59;28.80;48.60
65231;DHT22;51813;40.666;16.602;2023-08-17T15:22:25;28.80;48.40
65231;DHT22;51813;40.666;16.602;2023-08-17T15:24:51;28.80;47.90
65231;DHT22;51813;40.666;16.602;2023-08-17T15:27:16;28.80;48.10